Time;durP1;ratioP1;P1;durP2;ratioP2;P2;SDS_P1;SDS_P2;PMS_P1;PMS_P2;Temp;Humidity;BMP_temperature;BMP_pressure;BME280_temperature;BME280_humidity;BME280_pressure;Samples;Min_cycle;Max_cycle;Signal;HPM_P1;HPM_P2
2023/03/30 00:01:16;;;;;;;3.28;1.50;;;;;;;5.92;42.06;95306.81;5085498;28;20024;-79
2023/03/30 00:03:42;;;;;;;2.38;1.23;;;;;;;5.88;41.78;95302.75;5059591;28;20032;-79
2023/03/30 00:06:13;;;;;;;2.35;1.50;;;;;;;5.93;41.92;95316.22;5089386;28;20113;-79
2023/03/30 00:08:39;;;;;;;3.40;1.77;;;;;;;5.90;41.82;95308.66;5073489;28;20038;-80
2023/03/30 00:11:07;;;;;;;2.75;1.38;;;;;;;5.87;42.00;95298.50;5072661;28;20032;-80
2023/03/30 00:13:34;;;;;;;2.40;1.35;;;;;;;5.86;41.60;95307.19;5106996;28;20035;-79
2023/03/30 00:16:00;;;;;;;2.92;1.23;;;;;;;5.63;41.97;95268.06;5088771;28;20032;-80
2023/03/30 00:18:25;;;;;;;2.33;1.40;;;;;;;5.74;42.06;95299.22;5074243;28;20449;-80
2023/03/30 00:20:51;;;;;;;3.00;1.55;;;;;;;5.81;41.90;95299.69;5093025;28;20031;-79
2023/03/30 00:23:20;;;;;;;2.80;1.30;;;;;;;5.79;41.97;95292.06;5094501;28;20096;-79
2023/03/30 00:25:45;;;;;;;2.60;1.40;;;;;;;5.80;42.29;95293.72;5075998;28;20032;-80
2023/03/30 00:28:11;;;;;;;2.75;1.58;;;;;;;5.87;42.59;95288.19;5076250;28;20024;-80
2023/03/30 00:30:36;;;;;;;3.10;1.52;;;;;;;5.77;42.24;95287.91;5075718;28;20036;-80
2023/03/30 00:33:02;;;;;;;2.53;1.38;;;;;;;5.78;42.05;95290.38;5092859;28;20036;-79
2023/03/30 00:35:29;;;;;;;4.45;1.75;;;;;;;5.81;41.83;95287.63;5075805;28;20040;-80
2023/03/30 00:37:55;;;;;;;3.60;2.08;;;;;;;5.92;41.49;95286.19;5092700;28;20482;-80
2023/03/30 00:40:22;;;;;;;4.22;2.40;;;;;;;5.91;41.23;95285.38;5092947;28;20108;-79
2023/03/30 00:42:47;;;;;;;2.60;1.50;;;;;;;5.83;41.23;95282.41;5075528;28;20032;-79
2023/03/30 00:45:17;;;;;;;2.47;1.45;;;;;;;5.91;41.57;95284.56;5058799;28;20088;-79
2023/03/30 00:47:50;;;;;;;3.78;1.67;;;;;;;5.72;41.61;95259.81;5091701;28;20477;-80
2023/03/30 00:50:16;;;;;;;2.40;1.63;;;;;;;5.73;41.90;95279.50;5058909;28;20036;-80
2023/03/30 00:52:42;;;;;;;2.60;1.48;;;;;;;5.82;41.99;95297.03;5072357;28;20028;-79
2023/03/30 00:55:07;;;;;;;3.10;1.80;;;;;;;5.76;42.76;95301.69;5071775;28;20629;-79
2023/03/30 00:57:35;;;;;;;2.53;1.40;;;;;;;5.58;43.01;95262.31;5059958;28;20456;-80
2023/03/30 01:00:00;;;;;;;4.57;1.80;;;;;;;5.35;43.78;95258.47;5091978;28;20093;-80
2023/03/30 01:02:28;;;;;;;2.83;1.63;;;;;;;5.63;43.42;95290.41;5093502;28;20031;-79
2023/03/30 01:04:54;;;;;;;2.13;1.40;;;;;;;5.67;43.74;95287.56;5088075;28;20072;-80
2023/03/30 01:07:23;;;;;;;2.92;1.60;;;;;;;5.63;44.16;95300.72;5084923;28;20035;-80
2023/03/30 01:09:48;;;;;;;5.10;1.70;;;;;;;5.40;44.55;95260.75;5074743;28;20032;-79
2023/03/30 01:12:14;;;;;;;4.88;1.75;;;;;;;5.52;44.56;95303.91;5075017;28;20039;-79
2023/03/30 01:14:40;;;;;;;2.42;1.50;;;;;;;5.48;44.54;95287.75;5074962;28;20032;-79
2023/03/30 01:17:14;;;;;;;1.95;1.33;;;;;;;5.53;44.86;95300.41;5091645;28;20398;-79
2023/03/30 01:19:47;;;;;;;2.78;1.60;;;;;;;5.61;44.43;95298.25;5091537;28;20421;-79
2023/03/30 01:22:37;;;;;;;2.65;1.55;;;;;;;5.58;44.81;95298.41;5091798;28;20293;-79
2023/03/30 01:25:32;;;;;;;2.72;1.70;;;;;;;5.51;44.79;95299.66;5092703;28;20490;-79
2023/03/30 01:28:20;;;;;;;2.58;1.40;;;;;;;5.46;45.17;95309.38;5074514;28;20097;-79
2023/03/30 01:31:09;;;;;;;3.15;1.23;;;;;;;5.47;44.68;95303.31;5091132;28;20031;-79
2023/03/30 01:33:53;;;;;;;3.75;1.50;;;;;;;5.50;44.67;95305.72;5074610;28;20036;-79
2023/03/30 01:36:29;;;;;;;2.55;1.38;;;;;;;5.54;44.76;95312.38;5092530;28;20025;-79
2023/03/30 01:39:32;;;;;;;2.45;1.40;;;;;;;5.44;44.69;95306.06;5091037;28;20119;-79
2023/03/30 01:42:10;;;;;;;3.63;1.40;;;;;;;5.51;44.75;95302.22;5088235;28;20044;-79
2023/03/30 01:44:36;;;;;;;3.35;1.70;;;;;;;5.56;44.27;95305.38;5087794;28;20348;-79
2023/03/30 01:47:19;;;;;;;2.55;1.55;;;;;;;5.52;43.77;95303.91;5087827;28;20123;-79
2023/03/30 01:50:11;;;;;;;2.63;1.40;;;;;;;5.48;43.65;95294.66;5087461;28;20438;-79
2023/03/30 01:52:43;;;;;;;;;;;;;;;5.39;43.40;95301.16;5071598;28;20036;-79
2023/03/30 01:55:16;;;;;;;2.20;1.13;;;;;;;5.37;43.28;95274.63;5071965;28;20383;-79
2023/03/30 01:58:01;;;;;;;3.13;1.70;;;;;;;5.33;43.05;95289.44;5054642;28;20040;-79
2023/03/30 02:00:27;;;;;;;3.90;1.73;;;;;;;5.43;43.18;95292.34;5057461;28;20028;-79
2023/03/30 02:03:07;;;;;;;2.75;1.65;;;;;;;5.39;42.92;95280.56;5073617;28;20074;-80
2023/03/30 02:05:33;;;;;;;4.22;1.70;;;;;;;5.40;43.25;95287.34;5057329;28;20036;-79
2023/03/30 02:08:11;;;;;;;3.75;1.90;;;;;;;5.22;43.57;95270.34;5107826;28;20050;-79
2023/03/30 02:10:36;;;;;;;2.10;1.30;;;;;;;5.41;43.77;95311.41;5090999;27;20039;-79
2023/03/30 02:13:02;;;;;;;3.38;1.70;;;;;;;5.50;43.94;95296.25;5073680;28;20024;-80
2023/03/30 02:15:40;;;;;;;3.65;1.98;;;;;;;5.31;43.95;95285.28;5073692;28;20028;-79
2023/03/30 02:18:05;;;;;;;3.22;1.83;;;;;;;5.26;44.67;95292.44;5058246;28;20020;-79
2023/03/30 02:20:32;;;;;;;2.97;1.80;;;;;;;5.36;44.07;95309.06;5107315;28;20406;-79
2023/03/30 02:22:58;;;;;;;3.30;1.80;;;;;;;5.36;44.28;95306.50;5090511;28;20114;-79
2023/03/30 02:25:24;;;;;;;2.92;1.88;;;;;;;5.43;44.50;95306.97;5057138;28;20028;-79
2023/03/30 02:27:49;;;;;;;2.58;1.38;;;;;;;5.33;45.03;95307.47;5073506;28;20035;-79
2023/03/30 02:30:15;;;;;;;3.95;1.50;;;;;;;5.34;44.86;95308.31;5073511;28;20073;-79
2023/03/30 02:32:43;;;;;;;2.58;1.45;;;;;;;5.35;45.27;95313.38;5073362;28;20484;-79
2023/03/30 02:35:23;;;;;;;2.40;1.58;;;;;;;5.33;45.39;95312.63;5073435;28;20036;-79
2023/03/30 02:37:54;;;;;;;2.43;1.60;;;;;;;5.29;45.72;95318.03;5090237;28;20097;-79
2023/03/30 02:40:23;;;;;;;3.15;1.70;;;;;;;5.35;45.99;95308.25;5090514;28;20039;-79
2023/03/30 02:43:06;;;;;;;4.93;1.70;;;;;;;5.46;45.50;95310.22;5091646;28;20038;-79
2023/03/30 02:46:08;;;;;;;3.40;1.50;;;;;;;5.36;45.70;95316.78;5070974;28;20074;-79
2023/03/30 02:48:52;;;;;;;2.55;1.40;;;;;;;5.40;45.66;95323.44;5081940;28;20036;-79
2023/03/30 02:51:30;;;;;;;3.05;1.63;;;;;;;5.38;46.04;95317.53;5089853;28;20036;-79
2023/03/30 02:54:30;;;;;;;2.45;1.50;;;;;;;5.35;46.50;95328.84;5090839;28;20391;-79
2023/03/30 02:57:01;;;;;;;2.63;1.38;;;;;;;5.25;46.24;95325.09;5075860;28;20169;-79
2023/03/30 02:59:29;;;;;;;2.28;1.67;;;;;;;5.39;46.78;95314.03;5089801;28;20067;-79
2023/03/30 03:02:03;;;;;;;4.88;2.65;;;;;;;5.09;47.62;95309.63;5056526;28;20414;-79
2023/03/30 03:04:28;;;;;;;3.35;2.03;;;;;;;5.28;48.21;95331.84;5056486;28;20074;-79
2023/03/30 03:06:54;;;;;;;6.15;3.90;;;;;;;5.07;48.71;95301.16;5072954;28;20455;-79
2023/03/30 03:09:20;;;;;;;5.63;3.53;;;;;;;5.01;49.25;95303.22;5073020;28;20028;-79
2023/03/30 03:11:46;;;;;;;7.03;6.15;;;;;;;5.19;49.90;95333.16;5068485;28;20498;-79
2023/03/30 03:14:11;;;;;;;4.78;3.50;;;;;;;5.26;49.88;95333.66;5035435;28;20111;-79
2023/03/30 03:16:37;;;;;;;4.20;2.70;;;;;;;5.21;49.89;95321.03;5069384;28;20043;-79
2023/03/30 03:19:03;;;;;;;4.88;3.28;;;;;;;5.18;49.82;95330.66;5066733;28;20109;-79
2023/03/30 03:21:28;;;;;;;4.38;2.58;;;;;;;5.19;50.14;95328.00;5106611;28;20028;-79
2023/03/30 03:23:54;;;;;;;3.13;2.30;;;;;;;5.21;50.43;95336.50;5072736;28;20052;-79
2023/03/30 03:26:20;;;;;;;4.47;3.55;;;;;;;5.03;50.62;95312.53;5106524;28;20405;-79
2023/03/30 03:28:45;;;;;;;4.70;3.50;;;;;;;5.26;50.61;95336.22;5089328;28;20043;-78
2023/03/30 03:31:12;;;;;;;6.72;3.83;;;;;;;5.10;50.91;95323.34;5089695;28;20135;-79
2023/03/30 03:33:37;;;;;;;4.05;2.72;;;;;;;5.26;51.07;95339.63;5102689;28;20419;-79
2023/03/30 03:36:03;;;;;;;4.30;3.22;;;;;;;5.15;51.32;95341.94;5069270;28;20044;-79
2023/03/30 03:38:29;;;;;;;3.92;3.03;;;;;;;5.09;51.43;95321.66;5069155;28;20094;-79
2023/03/30 03:40:55;;;;;;;5.35;3.90;;;;;;;5.03;51.58;95330.56;5067625;28;20124;-79
2023/03/30 03:43:21;;;;;;;3.33;2.60;;;;;;;4.90;52.25;95340.69;5055157;28;20464;-79
2023/03/30 03:45:47;;;;;;;4.07;3.30;;;;;;;5.02;52.19;95341.78;5067863;28;20036;-79
2023/03/30 03:48:13;;;;;;;5.88;3.25;;;;;;;4.86;52.48;95321.13;5069160;28;20497;-79
2023/03/30 03:50:39;;;;;;;5.13;3.22;;;;;;;4.68;52.87;95288.63;5069135;28;20024;-79
2023/03/30 03:53:04;;;;;;;9.27;6.30;;;;;;;5.14;52.66;95350.59;5039149;28;20110;-79
2023/03/30 03:55:33;;;;;;;9.80;7.10;;;;;;;4.87;53.50;95342.56;5072504;28;20036;-79
2023/03/30 03:57:59;;;;;;;9.90;7.70;;;;;;;5.06;53.32;95357.88;5077041;28;20032;-79
2023/03/30 04:00:25;;;;;;;5.68;4.00;;;;;;;4.85;53.97;95354.72;5076414;28;20043;-79
2023/03/30 04:02:51;;;;;;;7.43;5.45;;;;;;;4.96;53.87;95356.69;5076030;28;20543;-79
2023/03/30 04:05:16;;;;;;;9.80;5.75;;;;;;;4.70;54.18;95325.41;5076061;28;20048;-79
2023/03/30 04:07:45;;;;;;;7.13;6.07;;;;;;;4.82;55.12;95347.97;5076244;28;20020;-79
2023/03/30 04:10:10;;;;;;;4.72;3.65;;;;;;;4.91;54.99;95365.50;5076645;28;20504;-79
2023/03/30 04:12:37;;;;;;;6.85;5.35;;;;;;;4.82;55.63;95360.84;5091862;28;20077;-79
2023/03/30 04:15:04;;;;;;;9.00;5.10;;;;;;;4.65;55.90;95338.53;5075835;28;20032;-79
2023/03/30 04:17:32;;;;;;;10.48;6.82;;;;;;;4.65;55.78;95325.69;5088506;28;20020;-79
2023/03/30 04:20:04;;;;;;;8.88;5.00;;;;;;;4.78;55.66;95331.00;5093198;28;20040;-79
2023/03/30 04:22:32;;;;;;;19.45;13.73;;;;;;;4.96;55.39;95356.69;5076711;28;20089;-79
2023/03/30 04:25:03;;;;;;;9.77;5.60;;;;;;;5.01;55.43;95362.44;5074464;28;20028;-79
2023/03/30 04:27:28;;;;;;;5.88;4.38;;;;;;;4.97;55.30;95353.22;5069034;28;20422;-79
2023/03/30 04:29:57;;;;;;;6.75;4.80;;;;;;;4.84;55.46;95320.38;5092724;28;20036;-79
2023/03/30 04:32:23;;;;;;;9.05;6.68;;;;;;;5.05;55.25;95362.22;5092988;28;20495;-79
2023/03/30 04:34:53;;;;;;;7.80;5.03;;;;;;;4.93;55.92;95365.41;5073318;28;20036;-79
2023/03/30 04:37:22;;;;;;;4.65;3.45;;;;;;;5.07;55.53;95365.56;5069897;28;20039;-79
2023/03/30 04:39:49;;;;;;;4.30;3.10;;;;;;;5.05;55.12;95353.66;5072213;28;20032;-80
2023/03/30 04:42:18;;;;;;;6.75;4.95;;;;;;;4.99;55.77;95357.41;5071702;28;20482;-80
2023/03/30 04:44:44;;;;;;;10.52;8.50;;;;;;;5.01;54.95;95354.72;5072709;28;20028;-80
2023/03/30 04:47:10;;;;;;;8.93;7.28;;;;;;;5.01;55.31;95370.16;5070820;28;20110;-80
2023/03/30 04:49:35;;;;;;;5.55;4.35;;;;;;;5.01;54.98;95372.75;5088611;28;20051;-79
2023/03/30 04:52:00;;;;;;;8.13;5.00;;;;;;;4.89;54.91;95346.72;5088269;28;20032;-79
2023/03/30 04:54:26;;;;;;;7.05;5.05;;;;;;;5.02;54.99;95377.00;5089422;28;20035;-79
2023/03/30 04:56:54;;;;;;;7.97;4.15;;;;;;;5.06;55.27;95365.63;5072347;28;20028;-79
2023/03/30 04:59:23;;;;;;;6.57;3.80;;;;;;;5.06;55.19;95368.19;5072154;28;20059;-79
2023/03/30 05:01:48;;;;;;;5.72;3.42;;;;;;;4.98;55.06;95347.16;5071680;28;20044;-79
2023/03/30 05:04:14;;;;;;;6.93;4.43;;;;;;;5.16;55.17;95377.09;5071977;28;20047;-79
2023/03/30 05:06:40;;;;;;;9.35;5.20;;;;;;;5.07;55.01;95375.00;5069628;28;20047;-80
2023/03/30 05:09:06;;;;;;;9.93;5.20;;;;;;;4.99;54.96;95361.72;5088920;28;20024;-80
2023/03/30 05:11:32;;;;;;;8.55;4.72;;;;;;;5.04;55.18;95377.72;5089021;28;20032;-80
2023/03/30 05:13:57;;;;;;;8.35;5.72;;;;;;;4.90;55.60;95338.13;5053759;28;20032;-80
2023/03/30 05:16:23;;;;;;;9.15;6.03;;;;;;;5.14;55.29;95373.78;5068800;28;20133;-79
2023/03/30 05:18:48;;;;;;;13.35;6.90;;;;;;;5.11;55.55;95371.38;5068550;28;20059;-80
2023/03/30 05:21:14;;;;;;;10.55;7.68;;;;;;;5.05;55.54;95376.84;5053455;28;20034;-79
2023/03/30 05:23:39;;;;;;;9.40;6.00;;;;;;;5.02;55.64;95370.09;5122193;27;20081;-79
2023/03/30 05:26:06;;;;;;;38.08;18.52;;;;;;;5.05;55.38;95377.66;5069703;28;20032;-79
2023/03/30 05:28:32;;;;;;;7.32;4.55;;;;;;;4.81;56.57;95373.78;5054721;28;20036;-79
2023/03/30 05:30:57;;;;;;;5.72;3.40;;;;;;;4.73;56.92;95379.31;5054882;28;20036;-79
2023/03/30 05:33:23;;;;;;;3.80;2.60;;;;;;;4.84;56.43;95371.88;5071249;28;20051;-78
2023/03/30 05:35:48;;;;;;;3.92;2.80;;;;;;;4.91;56.26;95375.81;5069494;28;20051;-79
2023/03/30 05:38:14;;;;;;;5.80;3.13;;;;;;;4.92;56.48;95379.22;5070739;28;20097;-79
2023/03/30 05:40:39;;;;;;;5.43;3.40;;;;;;;4.84;56.49;95363.31;5053996;28;20036;-79
2023/03/30 05:43:05;;;;;;;5.43;3.05;;;;;;;4.78;56.93;95369.63;5071149;28;20535;-79
2023/03/30 05:45:30;;;;;;;5.88;3.08;;;;;;;4.73;57.04;95340.69;5069228;28;20052;-79
2023/03/30 05:47:56;;;;;;;4.40;3.08;;;;;;;4.82;56.83;95355.69;5073444;28;20020;-79
2023/03/30 05:50:21;;;;;;;5.13;3.53;;;;;;;4.99;57.46;95384.88;5055763;28;20495;-79
2023/03/30 05:52:47;;;;;;;7.05;4.07;;;;;;;4.95;58.77;95394.50;5055960;28;20020;-78
2023/03/30 05:55:14;;;;;;;7.07;4.05;;;;;;;4.52;59.57;95349.53;5052734;28;20047;-79
2023/03/30 05:57:40;;;;;;;7.45;4.25;;;;;;;4.72;60.06;95393.09;5072056;28;20101;-78
2023/03/30 06:00:06;;;;;;;6.70;4.22;;;;;;;4.69;60.29;95394.09;5085700;28;20079;-78
2023/03/30 06:02:32;;;;;;;6.10;4.22;;;;;;;4.33;61.71;95389.03;5069484;28;20040;-78
2023/03/30 06:05:00;;;;;;;6.75;4.45;;;;;;;4.10;62.41;95382.44;5087382;28;20051;-78
2023/03/30 06:07:25;;;;;;;6.60;4.35;;;;;;;3.88;62.62;95350.97;5088829;28;20062;-78
2023/03/30 06:09:51;;;;;;;7.43;3.95;;;;;;;4.14;63.06;95413.97;5086207;28;20028;-78
2023/03/30 06:12:16;;;;;;;5.13;3.58;;;;;;;4.19;62.89;95412.03;5053680;28;20561;-78
2023/03/30 06:14:42;;;;;;;6.43;4.70;;;;;;;4.24;62.67;95416.03;5069564;28;20039;-78
2023/03/30 06:17:10;;;;;;;6.65;4.50;;;;;;;4.18;63.15;95413.78;5069324;28;20051;-79
2023/03/30 06:19:37;;;;;;;8.20;4.13;;;;;;;4.29;62.38;95420.97;5068193;28;20032;-78
2023/03/30 06:22:03;;;;;;;6.03;3.92;;;;;;;4.31;61.76;95400.31;5085533;28;20024;-76
2023/03/30 06:24:29;;;;;;;11.38;5.40;;;;;;;4.42;62.23;95414.28;5070224;28;20437;-75
2023/03/30 06:26:55;;;;;;;8.00;5.25;;;;;;;4.48;61.85;95429.47;5054307;28;20031;-77
2023/03/30 06:29:22;;;;;;;7.28;5.30;;;;;;;3.78;62.38;95327.44;5085169;28;20115;-82
2023/03/30 06:31:47;;;;;;;7.43;4.80;;;;;;;4.47;61.99;95430.34;5068722;28;20036;-82
2023/03/30 06:34:13;;;;;;;6.70;4.25;;;;;;;3.84;62.21;95328.88;5071457;28;20048;-81
2023/03/30 06:36:38;;;;;;;7.45;4.97;;;;;;;4.01;61.64;95337.44;5053970;28;20494;-81
2023/03/30 06:39:08;;;;;;;8.00;5.25;;;;;;;4.72;61.03;95428.31;5087111;28;20260;-76
2023/03/30 06:41:34;;;;;;;8.57;4.85;;;;;;;4.22;60.41;95352.72;5087440;28;20031;-87
2023/03/30 06:43:59;;;;;;;7.20;4.50;;;;;;;3.81;60.59;95306.72;5087479;28;20058;-81
2023/03/30 06:46:32;;;;;;;9.63;5.05;;;;;;;4.44;61.06;95409.09;5087653;28;20028;-86
2023/03/30 06:48:57;;;;;;;7.75;4.55;;;;;;;4.26;60.67;95346.50;5071998;28;20040;-81
2023/03/30 06:51:23;;;;;;;8.57;4.97;;;;;;;4.09;60.83;95320.78;5089309;28;20028;-82
2023/03/30 06:53:49;;;;;;;6.35;4.50;;;;;;;4.49;59.94;95360.81;5071372;28;20043;-82
2023/03/30 06:56:14;;;;;;;9.10;5.32;;;;;;;4.80;60.03;95396.13;5073219;28;20024;-81
2023/03/30 06:58:40;;;;;;;6.75;4.53;;;;;;;4.84;59.29;95418.22;5106643;28;20041;-82
2023/03/30 07:01:10;;;;;;;6.55;4.30;;;;;;;4.33;59.71;95360.75;5089614;28;20024;-82
2023/03/30 07:03:36;;;;;;;6.18;3.92;;;;;;;4.86;59.62;95421.53;5090059;28;20032;-81
2023/03/30 07:06:02;;;;;;;13.43;5.82;;;;;;;5.01;59.21;95414.78;5090239;28;20040;-82
2023/03/30 07:08:28;;;;;;;7.72;4.28;;;;;;;4.79;59.02;95367.88;5087568;28;20028;-82
2023/03/30 07:10:53;;;;;;;7.97;4.75;;;;;;;5.32;58.37;95442.38;5087440;28;20036;-82
2023/03/30 07:13:19;;;;;;;8.13;5.05;;;;;;;5.41;57.83;95440.22;5070687;28;20040;-82
2023/03/30 07:15:44;;;;;;;9.23;5.00;;;;;;;5.55;57.65;95448.06;5088507;28;20238;-82
2023/03/30 07:18:10;;;;;;;6.22;4.57;;;;;;;4.93;57.67;95332.78;5071187;28;20482;-82
2023/03/30 07:20:36;;;;;;;8.27;4.95;;;;;;;5.59;57.64;95429.75;5071448;28;20533;-82
2023/03/30 07:23:01;;;;;;;7.90;4.53;;;;;;;5.19;57.35;95343.47;5072097;28;20051;-82
2023/03/30 07:25:27;;;;;;;9.48;5.10;;;;;;;5.71;56.89;95438.59;5090970;28;20102;-80
2023/03/30 07:27:52;;;;;;;10.63;5.82;;;;;;;5.00;56.86;95320.41;5076151;28;20043;-82
2023/03/30 07:30:18;;;;;;;7.45;5.50;;;;;;;5.31;56.35;95329.09;5095103;28;20047;-82
2023/03/30 07:32:44;;;;;;;6.40;4.70;;;;;;;6.06;55.89;95441.03;5077274;28;20024;-82
2023/03/30 07:35:10;;;;;;;7.43;4.50;;;;;;;5.58;55.29;95345.63;5093972;28;20048;-82
2023/03/30 07:37:38;;;;;;;6.80;4.07;;;;;;;6.38;54.64;95443.56;5060400;28;20478;-82
2023/03/30 07:40:06;;;;;;;10.38;4.43;;;;;;;6.02;54.07;95369.91;5077834;28;20035;-83
2023/03/30 07:42:32;;;;;;;7.50;4.63;;;;;;;5.85;54.00;95323.56;5077193;28;20032;-82
2023/03/30 07:44:57;;;;;;;7.60;4.90;;;;;;;6.54;54.09;95428.03;5094095;28;20035;-82
2023/03/30 07:47:23;;;;;;;7.88;5.13;;;;;;;6.04;53.93;95331.94;5076804;28;20036;-83
2023/03/30 07:49:48;;;;;;;7.53;5.28;;;;;;;6.77;54.07;95448.22;5093580;28;20032;-82
2023/03/30 07:52:14;;;;;;;8.25;5.60;;;;;;;6.51;53.77;95372.25;5076641;28;20417;-81
2023/03/30 07:54:42;;;;;;;7.32;5.57;;;;;;;6.31;53.36;95333.88;5110497;28;20043;-82
2023/03/30 07:57:08;;;;;;;7.18;4.72;;;;;;;7.09;53.27;95436.00;5095068;27;20032;-83
2023/03/30 07:59:34;;;;;;;7.53;4.90;;;;;;;7.17;52.48;95427.78;5094483;28;20486;-83
2023/03/30 08:02:00;;;;;;;9.20;5.03;;;;;;;7.49;52.07;95427.59;5093363;28;20024;-83
2023/03/30 08:04:26;;;;;;;6.13;4.80;;;;;;;7.42;51.72;95375.44;5076458;28;20043;-83
2023/03/30 08:06:52;;;;;;;8.38;4.88;;;;;;;7.99;51.65;95440.00;5076540;28;20066;-83
2023/03/30 08:09:18;;;;;;;8.63;5.13;;;;;;;8.00;50.14;95433.91;5093414;28;20440;-83
2023/03/30 08:11:44;;;;;;;7.43;4.95;;;;;;;7.87;50.17;95360.56;5093422;28;20078;-83
2023/03/30 08:14:09;;;;;;;8.60;5.00;;;;;;;8.34;49.42;95405.88;5059873;28;20490;-82
2023/03/30 08:16:35;;;;;;;7.03;4.65;;;;;;;8.54;48.89;95433.09;5076885;28;20039;-82
2023/03/30 08:19:00;;;;;;;6.85;5.22;;;;;;;8.07;48.96;95354.13;5076276;28;20035;-83
2023/03/30 08:21:26;;;;;;;8.70;5.43;;;;;;;8.63;48.70;95426.47;5076504;28;20478;-83
2023/03/30 08:23:53;;;;;;;7.97;4.82;;;;;;;8.25;48.06;95341.75;5059800;28;20032;-83
2023/03/30 08:26:19;;;;;;;8.60;5.40;;;;;;;8.19;48.27;95340.41;5093583;28;20093;-83
2023/03/30 08:28:45;;;;;;;8.32;5.60;;;;;;;7.61;48.81;95315.69;5092946;28;20028;-84
2023/03/30 08:31:10;;;;;;;9.13;5.93;;;;;;;8.29;49.00;95418.28;5093392;28;20509;-80
2023/03/30 08:33:36;;;;;;;6.43;5.35;;;;;;;8.43;49.64;95418.25;5076474;28;20440;-81
2023/03/30 08:36:02;;;;;;;6.93;4.65;;;;;;;7.80;49.16;95338.59;5076206;28;20024;-83
2023/03/30 08:38:28;;;;;;;6.75;5.13;;;;;;;7.77;49.04;95331.03;5108632;28;20039;-83
2023/03/30 08:40:53;;;;;;;8.50;5.13;;;;;;;8.42;48.75;95418.38;5075957;28;20089;-83
2023/03/30 08:43:40;;;;;;;8.75;5.35;;;;;;;8.58;49.56;95406.09;5092444;28;20028;-82
2023/03/30 08:46:09;;;;;;;9.40;4.65;;;;;;;8.84;49.02;95419.91;5092483;28;20032;-83
2023/03/30 08:48:38;;;;;;;10.25;6.60;;;;;;;8.64;48.77;95351.28;5076018;28;20066;-83
2023/03/30 08:51:24;;;;;;;7.13;4.60;;;;;;;8.93;47.72;95366.63;5092339;28;20028;-83
2023/03/30 08:53:55;;;;;;;8.13;4.75;;;;;;;9.16;47.46;95391.84;5092477;28;20104;-83
2023/03/30 08:56:30;;;;;;;10.65;5.45;;;;;;;9.11;46.96;95365.38;5075901;28;20031;-83
2023/03/30 08:59:11;;;;;;;7.20;5.45;;;;;;;9.47;47.93;95412.22;5076298;28;20044;-83
2023/03/30 09:01:45;;;;;;;7.40;4.70;;;;;;;9.57;46.50;95418.44;5092193;28;20039;-82
2023/03/30 09:04:39;;;;;;;7.28;4.43;;;;;;;9.82;46.21;95410.59;5091753;28;20043;-83
2023/03/30 09:07:19;;;;;;;7.50;4.38;;;;;;;9.52;45.77;95347.88;5093199;28;20506;-83
2023/03/30 09:09:45;;;;;;;8.93;4.30;;;;;;;9.88;44.99;95398.13;5093077;27;20115;-83
2023/03/30 09:12:38;;;;;;;6.80;4.22;;;;;;;9.88;45.35;95387.75;5092233;28;20562;-83
2023/03/30 09:15:15;;;;;;;8.60;4.55;;;;;;;8.84;45.71;95320.63;5093513;28;20120;-83
2023/03/30 09:17:44;;;;;;;9.50;4.68;;;;;;;8.87;45.77;95295.31;5075797;28;20545;-83
2023/03/30 09:20:17;;;;;;;6.50;4.22;;;;;;;9.34;45.79;95368.16;5092049;27;20028;-83
2023/03/30 09:22:43;;;;;;;7.40;4.63;;;;;;;9.61;45.82;95344.63;5092062;28;20028;-83
2023/03/30 09:25:17;;;;;;;6.28;4.50;;;;;;;9.61;45.08;95311.78;5092210;27;20533;-82
2023/03/30 09:27:59;;;;;;;8.23;5.03;;;;;;;9.63;45.06;95373.91;5075235;28;20505;-83
2023/03/30 09:30:36;;;;;;;8.98;4.47;;;;;;;9.44;45.24;95290.53;5074818;28;20036;-83
2023/03/30 09:33:06;;;;;;;5.90;4.78;;;;;;;9.32;44.93;95241.22;5076563;28;20469;-83
2023/03/30 09:35:41;;;;;;;8.70;4.45;;;;;;;9.85;44.42;95300.56;5093070;28;20081;-83
2023/03/30 09:38:12;;;;;;;7.72;4.43;;;;;;;10.40;43.52;95365.84;5091826;28;20031;-84
2023/03/30 09:41:10;;;;;;;6.70;4.30;;;;;;;9.99;44.00;95357.47;5075120;28;20111;-83
2023/03/30 09:43:46;;;;;;;10.70;5.18;;;;;;;9.77;43.70;95248.38;5088264;28;20640;-83
2023/03/30 09:46:13;;;;;;;7.15;4.93;;;;;;;9.96;42.82;95242.69;5074792;28;20028;-83
2023/03/30 09:48:43;;;;;;;7.40;4.63;;;;;;;10.56;42.50;95324.81;5075353;28;20031;-83
2023/03/30 09:51:35;;;;;;;7.80;4.80;;;;;;;11.19;42.23;95346.84;5092641;28;20031;-83
2023/03/30 09:54:02;;;;;;;9.50;5.00;;;;;;;11.43;41.30;95332.91;5090478;28;20047;-83
2023/03/30 09:56:36;;;;;;;7.60;4.70;;;;;;;11.60;40.47;95334.19;5074775;28;20024;-84
2023/03/30 09:59:31;;;;;;;7.28;4.65;;;;;;;11.76;40.11;95328.63;5092783;28;20094;-83
2023/03/30 10:02:14;;;;;;;6.88;4.57;;;;;;;11.21;40.61;95330.31;5071904;28;20048;-83
2023/03/30 10:04:51;;;;;;;7.25;4.68;;;;;;;11.10;41.53;95321.56;5091884;28;20085;-83
2023/03/30 10:07:38;;;;;;;5.90;4.03;;;;;;;11.43;39.79;95325.13;5092774;28;20028;-83
2023/03/30 10:10:33;;;;;;;12.10;7.05;;;;;;;11.28;39.37;95269.06;5091491;28;20024;-84
2023/03/30 10:13:15;;;;;;;9.77;6.97;;;;;;;11.39;38.22;95261.25;5058274;28;20044;-83
2023/03/30 10:15:45;;;;;;;8.32;7.03;;;;;;;11.28;37.56;95198.84;5075382;28;20083;-84
2023/03/30 10:18:37;;;;;;;5.07;3.50;;;;;;;12.21;36.95;95313.69;5108182;27;20028;-83
2023/03/30 10:21:05;;;;;;;7.28;4.35;;;;;;;12.16;37.07;95308.03;5064113;28;20044;-84
2023/03/30 10:23:33;;;;;;;6.57;3.72;;;;;;;12.03;36.69;95297.78;5091083;28;20028;-84
2023/03/30 10:26:00;;;;;;;21.38;17.02;;;;;;;12.06;36.64;95253.28;5090642;28;20131;-84
2023/03/30 10:28:27;;;;;;;10.13;5.30;;;;;;;11.95;37.56;95229.91;5090575;28;20032;-84
2023/03/30 10:30:56;;;;;;;5.07;2.83;;;;;;;12.42;36.17;95307.69;5090433;28;20028;-83
2023/03/30 10:33:22;;;;;;;4.03;2.50;;;;;;;12.47;36.22;95301.13;5090686;28;20035;-84
2023/03/30 10:35:52;;;;;;;9.32;6.38;;;;;;;12.49;36.40;95273.19;5090720;28;20119;-84
2023/03/30 10:38:17;;;;;;;2.83;2.10;;;;;;;11.90;35.78;95203.41;5091043;28;20028;-84
2023/03/30 10:40:43;;;;;;;5.35;2.00;;;;;;;12.33;35.77;95238.09;5056349;28;20039;-84
2023/03/30 10:43:14;;;;;;;4.93;3.60;;;;;;;12.51;35.59;95273.06;5073595;28;20505;-84
2023/03/30 10:45:43;;;;;;;3.97;2.42;;;;;;;12.71;35.70;95289.66;5073423;28;20032;-84
2023/03/30 10:48:12;;;;;;;3.65;2.00;;;;;;;12.27;35.29;95216.00;5073719;28;20526;-84
2023/03/30 10:50:49;;;;;;;3.03;1.90;;;;;;;12.70;35.20;95285.38;5073072;28;20514;-84
2023/03/30 10:53:40;;;;;;;4.47;2.70;;;;;;;12.69;35.75;95288.94;5090323;28;20028;-83
2023/03/30 10:56:25;;;;;;;3.60;2.20;;;;;;;12.57;35.06;95285.59;5070336;28;20526;-84
2023/03/30 10:58:56;;;;;;;3.97;2.28;;;;;;;12.18;35.13;95216.78;5091296;28;20583;-83
2023/03/30 11:01:34;;;;;;;5.25;2.30;;;;;;;12.75;35.20;95278.81;5089347;28;20031;-84
2023/03/30 11:04:02;;;;;;;14.07;11.95;;;;;;;12.63;35.60;95219.09;5091476;28;20036;-84
2023/03/30 11:06:33;;;;;;;7.85;7.05;;;;;;;12.67;35.25;95203.03;5089638;28;20036;-84
2023/03/30 11:09:01;;;;;;;5.78;3.20;;;;;;;12.70;34.90;95181.09;5073275;28;20035;-84
2023/03/30 11:11:57;;;;;;;5.68;2.75;;;;;;;12.57;34.88;95202.19;5056147;28;20039;-84
2023/03/30 11:14:59;;;;;;;4.30;2.40;;;;;;;13.18;35.11;95262.13;5089405;28;20047;-84
2023/03/30 11:17:30;;;;;;;3.10;2.38;;;;;;;13.13;34.64;95240.00;5069361;28;20040;-84
2023/03/30 11:19:56;;;;;;;4.68;2.95;;;;;;;13.05;34.68;95238.06;5073372;28;20598;-83
2023/03/30 11:22:22;;;;;;;4.90;3.47;;;;;;;13.41;35.48;95247.13;5073249;28;20028;-83
2023/03/30 11:24:48;;;;;;;4.07;2.35;;;;;;;13.35;34.32;95239.00;5089793;28;20032;-84
2023/03/30 11:27:19;;;;;;;4.85;2.90;;;;;;;12.96;34.77;95155.41;5089929;28;20559;-84
2023/03/30 11:30:07;;;;;;;6.63;3.60;;;;;;;13.21;34.27;95174.16;5073302;28;20032;-83
2023/03/30 11:32:37;;;;;;;5.63;2.50;;;;;;;13.45;34.10;95229.41;5068530;28;20043;-84
2023/03/30 11:35:42;;;;;;;4.80;3.40;;;;;;;13.46;34.45;95225.03;5072686;28;20036;-84
2023/03/30 11:38:07;;;;;;;5.32;2.50;;;;;;;13.49;34.79;95222.97;5089642;28;20394;-84
2023/03/30 11:40:59;;;;;;;8.02;3.25;;;;;;;13.53;34.18;95216.50;5089335;28;20032;-83
2023/03/30 11:43:27;;;;;;;7.85;5.75;;;;;;;13.50;34.31;95221.19;5089351;28;20028;-84
2023/03/30 11:46:08;;;;;;;5.50;4.22;;;;;;;13.49;33.78;95211.72;5089655;28;20051;-83
2023/03/30 11:48:50;;;;;;;3.35;2.47;;;;;;;13.52;34.07;95217.47;5091219;28;20032;-84
2023/03/30 11:51:19;;;;;;;4.28;2.80;;;;;;;13.48;34.52;95213.47;5089428;28;20563;-83
2023/03/30 11:53:57;;;;;;;3.95;2.42;;;;;;;13.42;33.98;95214.03;5089425;28;20472;-84